sensor_id;sensor_type;location;lat;lon;timestamp;P1;durP1;ratioP1;P2;durP2;ratioP2
10295;SDS011;5193;51.032;6.356;2022-11-15T00:00:46;14.47;;;10.57;;
10295;SDS011;5193;51.032;6.356;2022-11-15T00:03:19;13.63;;;9.43;;
10295;SDS011;5193;51.032;6.356;2022-11-15T00:05:47;12.10;;;8.57;;
10295;SDS011;5193;51.032;6.356;2022-11-15T00:08:12;11.00;;;8.33;;
10295;SDS011;5193;51.032;6.356;2022-11-15T00:10:38;15.27;;;9.90;;
10295;SDS011;5193;51.032;6.356;2022-11-15T00:13:08;14.37;;;8.83;;
10295;SDS011;5193;51.032;6.356;2022-11-15T00:15:38;13.43;;;8.53;;
10295;SDS011;5193;51.032;6.356;2022-11-15T00:18:04;10.07;;;7.67;;
10295;SDS011;5193;51.032;6.356;2022-11-15T00:20:31;14.10;;;8.93;;
10295;SDS011;5193;51.032;6.356;2022-11-15T00:22:58;14.50;;;9.03;;
10295;SDS011;5193;51.032;6.356;2022-11-15T00:25:24;17.70;;;11.23;;
10295;SDS011;5193;51.032;6.356;2022-11-15T00:27:50;15.13;;;10.80;;
10295;SDS011;5193;51.032;6.356;2022-11-15T00:30:16;19.00;;;10.13;;
10295;SDS011;5193;51.032;6.356;2022-11-15T00:32:42;14.07;;;10.67;;
10295;SDS011;5193;51.032;6.356;2022-11-15T00:35:08;15.03;;;10.30;;
10295;SDS011;5193;51.032;6.356;2022-11-15T00:37:33;15.90;;;10.80;;
10295;SDS011;5193;51.032;6.356;2022-11-15T00:39:59;16.63;;;10.57;;
10295;SDS011;5193;51.032;6.356;2022-11-15T00:42:24;14.60;;;10.30;;
10295;SDS011;5193;51.032;6.356;2022-11-15T00:44:50;16.00;;;11.20;;
10295;SDS011;5193;51.032;6.356;2022-11-15T00:47:15;18.30;;;11.40;;
10295;SDS011;5193;51.032;6.356;2022-11-15T00:49:41;17.40;;;10.47;;
10295;SDS011;5193;51.032;6.356;2022-11-15T00:52:06;16.87;;;9.17;;
10295;SDS011;5193;51.032;6.356;2022-11-15T00:54:32;14.10;;;8.63;;
10295;SDS011;5193;51.032;6.356;2022-11-15T00:56:57;11.80;;;8.97;;
10295;SDS011;5193;51.032;6.356;2022-11-15T00:59:23;14.13;;;8.37;;
10295;SDS011;5193;51.032;6.356;2022-11-15T01:01:49;11.53;;;8.87;;
10295;SDS011;5193;51.032;6.356;2022-11-15T01:04:14;12.27;;;8.27;;
10295;SDS011;5193;51.032;6.356;2022-11-15T01:06:40;13.40;;;7.97;;
10295;SDS011;5193;51.032;6.356;2022-11-15T01:09:05;12.90;;;8.57;;
10295;SDS011;5193;51.032;6.356;2022-11-15T01:11:31;12.97;;;8.27;;
10295;SDS011;5193;51.032;6.356;2022-11-15T01:13:56;13.67;;;8.90;;
10295;SDS011;5193;51.032;6.356;2022-11-15T01:16:22;16.80;;;10.10;;
10295;SDS011;5193;51.032;6.356;2022-11-15T01:18:47;16.60;;;9.53;;
10295;SDS011;5193;51.032;6.356;2022-11-15T01:21:14;14.57;;;9.93;;
10295;SDS011;5193;51.032;6.356;2022-11-15T01:23:42;17.10;;;10.47;;
10295;SDS011;5193;51.032;6.356;2022-11-15T01:26:10;14.70;;;9.93;;
10295;SDS011;5193;51.032;6.356;2022-11-15T01:28:38;11.93;;;8.77;;
10295;SDS011;5193;51.032;6.356;2022-11-15T01:31:06;12.03;;;8.23;;
10295;SDS011;5193;51.032;6.356;2022-11-15T01:33:37;11.27;;;8.20;;
10295;SDS011;5193;51.032;6.356;2022-11-15T01:36:03;12.33;;;8.23;;
10295;SDS011;5193;51.032;6.356;2022-11-15T01:38:30;14.07;;;7.87;;
10295;SDS011;5193;51.032;6.356;2022-11-15T01:40:55;12.93;;;7.07;;
10295;SDS011;5193;51.032;6.356;2022-11-15T01:43:22;10.73;;;7.07;;
10295;SDS011;5193;51.032;6.356;2022-11-15T01:45:51;10.07;;;7.13;;
10295;SDS011;5193;51.032;6.356;2022-11-15T01:48:31;13.93;;;8.07;;
10295;SDS011;5193;51.032;6.356;2022-11-15T01:50:59;13.80;;;8.40;;
10295;SDS011;5193;51.032;6.356;2022-11-15T01:53:27;12.60;;;8.17;;
10295;SDS011;5193;51.032;6.356;2022-11-15T01:55:54;12.00;;;7.97;;
10295;SDS011;5193;51.032;6.356;2022-11-15T01:58:20;10.13;;;7.70;;
10295;SDS011;5193;51.032;6.356;2022-11-15T02:00:46;9.70;;;7.23;;
10295;SDS011;5193;51.032;6.356;2022-11-15T02:03:14;12.37;;;7.80;;
10295;SDS011;5193;51.032;6.356;2022-11-15T02:05:40;11.77;;;7.13;;
10295;SDS011;5193;51.032;6.356;2022-11-15T02:08:06;10.40;;;7.17;;
10295;SDS011;5193;51.032;6.356;2022-11-15T02:10:33;15.27;;;8.20;;
10295;SDS011;5193;51.032;6.356;2022-11-15T02:12:58;16.20;;;8.20;;
10295;SDS011;5193;51.032;6.356;2022-11-15T02:15:26;11.43;;;7.70;;
10295;SDS011;5193;51.032;6.356;2022-11-15T02:18:17;12.87;;;8.37;;
10295;SDS011;5193;51.032;6.356;2022-11-15T02:21:20;14.90;;;7.93;;
10295;SDS011;5193;51.032;6.356;2022-11-15T02:32:00;13.53;;;8.10;;
10295;SDS011;5193;51.032;6.356;2022-11-15T02:37:34;11.43;;;7.90;;
10295;SDS011;5193;51.032;6.356;2022-11-15T02:40:46;12.00;;;7.97;;
10295;SDS011;5193;51.032;6.356;2022-11-15T02:43:11;13.17;;;8.07;;
10295;SDS011;5193;51.032;6.356;2022-11-15T02:46:31;12.90;;;7.77;;
10295;SDS011;5193;51.032;6.356;2022-11-15T02:49:37;9.03;;;6.70;;
10295;SDS011;5193;51.032;6.356;2022-11-15T02:52:05;13.70;;;7.97;;
10295;SDS011;5193;51.032;6.356;2022-11-15T02:54:31;13.83;;;7.80;;
10295;SDS011;5193;51.032;6.356;2022-11-15T02:57:00;14.17;;;8.37;;
10295;SDS011;5193;51.032;6.356;2022-11-15T03:07:43;12.07;;;8.27;;
10295;SDS011;5193;51.032;6.356;2022-11-15T03:15:55;14.87;;;7.23;;
10295;SDS011;5193;51.032;6.356;2022-11-15T03:19:11;11.10;;;7.20;;
10295;SDS011;5193;51.032;6.356;2022-11-15T03:21:30;14.73;;;6.57;;
10295;SDS011;5193;51.032;6.356;2022-11-15T03:23:58;12.30;;;7.23;;
10295;SDS011;5193;51.032;6.356;2022-11-15T03:26:28;12.37;;;7.80;;
10295;SDS011;5193;51.032;6.356;2022-11-15T03:29:00;11.73;;;7.30;;
10295;SDS011;5193;51.032;6.356;2022-11-15T03:31:32;13.87;;;7.40;;
10295;SDS011;5193;51.032;6.356;2022-11-15T03:36:45;11.00;;;8.03;;
10295;SDS011;5193;51.032;6.356;2022-11-15T03:39:12;12.67;;;7.47;;
10295;SDS011;5193;51.032;6.356;2022-11-15T03:42:18;13.97;;;8.03;;
10295;SDS011;5193;51.032;6.356;2022-11-15T03:44:54;12.33;;;8.00;;
10295;SDS011;5193;51.032;6.356;2022-11-15T03:47:30;11.97;;;7.97;;
10295;SDS011;5193;51.032;6.356;2022-11-15T03:50:03;13.97;;;7.80;;
10295;SDS011;5193;51.032;6.356;2022-11-15T03:52:41;11.23;;;7.93;;
10295;SDS011;5193;51.032;6.356;2022-11-15T03:55:10;12.23;;;7.30;;
10295;SDS011;5193;51.032;6.356;2022-11-15T03:57:40;11.27;;;7.10;;
10295;SDS011;5193;51.032;6.356;2022-11-15T04:00:06;16.53;;;7.70;;
10295;SDS011;5193;51.032;6.356;2022-11-15T04:02:32;9.60;;;7.40;;
10295;SDS011;5193;51.032;6.356;2022-11-15T04:04:58;12.37;;;7.47;;
10295;SDS011;5193;51.032;6.356;2022-11-15T04:07:23;11.50;;;7.13;;
10295;SDS011;5193;51.032;6.356;2022-11-15T04:09:49;9.00;;;7.17;;
10295;SDS011;5193;51.032;6.356;2022-11-15T04:12:33;10.80;;;6.87;;
10295;SDS011;5193;51.032;6.356;2022-11-15T04:15:02;11.97;;;5.90;;
10295;SDS011;5193;51.032;6.356;2022-11-15T04:17:36;11.47;;;6.30;;
10295;SDS011;5193;51.032;6.356;2022-11-15T04:20:14;8.67;;;6.17;;
10295;SDS011;5193;51.032;6.356;2022-11-15T04:23:03;10.03;;;6.00;;
10295;SDS011;5193;51.032;6.356;2022-11-15T04:25:51;8.60;;;5.53;;
10295;SDS011;5193;51.032;6.356;2022-11-15T04:28:18;8.00;;;5.13;;
10295;SDS011;5193;51.032;6.356;2022-11-15T04:30:43;7.47;;;5.57;;
10295;SDS011;5193;51.032;6.356;2022-11-15T04:33:09;7.17;;;5.23;;
10295;SDS011;5193;51.032;6.356;2022-11-15T04:35:35;6.47;;;5.33;;
10295;SDS011;5193;51.032;6.356;2022-11-15T04:38:01;7.87;;;5.63;;
10295;SDS011;5193;51.032;6.356;2022-11-15T04:40:28;8.37;;;5.70;;
10295;SDS011;5193;51.032;6.356;2022-11-15T04:42:54;9.47;;;5.63;;
10295;SDS011;5193;51.032;6.356;2022-11-15T04:45:19;9.27;;;5.53;;
10295;SDS011;5193;51.032;6.356;2022-11-15T04:47:45;9.83;;;5.53;;
10295;SDS011;5193;51.032;6.356;2022-11-15T04:50:12;15.13;;;5.60;;
10295;SDS011;5193;51.032;6.356;2022-11-15T04:52:59;7.53;;;5.67;;
10295;SDS011;5193;51.032;6.356;2022-11-15T04:55:24;6.63;;;5.20;;
10295;SDS011;5193;51.032;6.356;2022-11-15T04:57:56;6.57;;;5.30;;
10295;SDS011;5193;51.032;6.356;2022-11-15T05:00:23;6.50;;;5.17;;
10295;SDS011;5193;51.032;6.356;2022-11-15T05:02:49;12.00;;;5.03;;
10295;SDS011;5193;51.032;6.356;2022-11-15T05:05:34;8.80;;;5.10;;
10295;SDS011;5193;51.032;6.356;2022-11-15T05:08:00;7.17;;;4.80;;
10295;SDS011;5193;51.032;6.356;2022-11-15T05:10:25;8.20;;;5.10;;
10295;SDS011;5193;51.032;6.356;2022-11-15T05:12:51;8.67;;;5.30;;
10295;SDS011;5193;51.032;6.356;2022-11-15T05:15:16;7.57;;;5.57;;
10295;SDS011;5193;51.032;6.356;2022-11-15T05:17:42;7.00;;;5.50;;
10295;SDS011;5193;51.032;6.356;2022-11-15T05:20:07;5.83;;;4.90;;
10295;SDS011;5193;51.032;6.356;2022-11-15T05:22:33;6.60;;;4.80;;
10295;SDS011;5193;51.032;6.356;2022-11-15T05:24:59;5.37;;;4.30;;
10295;SDS011;5193;51.032;6.356;2022-11-15T05:27:24;7.27;;;5.37;;
10295;SDS011;5193;51.032;6.356;2022-11-15T05:29:50;5.87;;;4.17;;
10295;SDS011;5193;51.032;6.356;2022-11-15T05:32:16;4.73;;;4.23;;
10295;SDS011;5193;51.032;6.356;2022-11-15T05:34:42;6.13;;;4.57;;
10295;SDS011;5193;51.032;6.356;2022-11-15T05:37:08;5.63;;;4.40;;
10295;SDS011;5193;51.032;6.356;2022-11-15T05:39:34;6.77;;;4.77;;
10295;SDS011;5193;51.032;6.356;2022-11-15T05:42:01;6.30;;;4.83;;
10295;SDS011;5193;51.032;6.356;2022-11-15T05:44:31;4.87;;;4.23;;
10295;SDS011;5193;51.032;6.356;2022-11-15T05:46:58;4.90;;;4.33;;
10295;SDS011;5193;51.032;6.356;2022-11-15T05:49:25;6.63;;;4.30;;
10295;SDS011;5193;51.032;6.356;2022-11-15T05:51:54;8.17;;;4.20;;
10295;SDS011;5193;51.032;6.356;2022-11-15T05:54:21;4.60;;;3.53;;
10295;SDS011;5193;51.032;6.356;2022-11-15T05:56:48;8.50;;;4.07;;
10295;SDS011;5193;51.032;6.356;2022-11-15T05:59:14;4.93;;;4.23;;
10295;SDS011;5193;51.032;6.356;2022-11-15T06:01:40;5.33;;;4.40;;
10295;SDS011;5193;51.032;6.356;2022-11-15T06:04:06;4.67;;;4.10;;
10295;SDS011;5193;51.032;6.356;2022-11-15T06:06:32;5.50;;;3.63;;
10295;SDS011;5193;51.032;6.356;2022-11-15T06:08:57;4.30;;;3.90;;
10295;SDS011;5193;51.032;6.356;2022-11-15T06:11:23;3.70;;;3.00;;
10295;SDS011;5193;51.032;6.356;2022-11-15T06:13:49;7.67;;;3.97;;
10295;SDS011;5193;51.032;6.356;2022-11-15T06:16:14;4.47;;;3.50;;
10295;SDS011;5193;51.032;6.356;2022-11-15T06:18:40;2.40;;;2.17;;
10295;SDS011;5193;51.032;6.356;2022-11-15T06:21:05;3.00;;;1.90;;
10295;SDS011;5193;51.032;6.356;2022-11-15T06:23:31;1.60;;;1.50;;
10295;SDS011;5193;51.032;6.356;2022-11-15T06:25:58;2.47;;;1.40;;
10295;SDS011;5193;51.032;6.356;2022-11-15T06:28:24;1.93;;;1.57;;
10295;SDS011;5193;51.032;6.356;2022-11-15T06:30:53;1.90;;;1.63;;
10295;SDS011;5193;51.032;6.356;2022-11-15T06:33:18;2.87;;;1.50;;
10295;SDS011;5193;51.032;6.356;2022-11-15T06:35:44;1.50;;;1.33;;
10295;SDS011;5193;51.032;6.356;2022-11-15T06:38:10;1.70;;;1.30;;
10295;SDS011;5193;51.032;6.356;2022-11-15T06:40:37;1.40;;;1.03;;
10295;SDS011;5193;51.032;6.356;2022-11-15T06:43:04;1.53;;;1.00;;
10295;SDS011;5193;51.032;6.356;2022-11-15T06:45:30;1.33;;;1.00;;
10295;SDS011;5193;51.032;6.356;2022-11-15T06:47:56;1.87;;;0.80;;
10295;SDS011;5193;51.032;6.356;2022-11-15T06:50:22;0.50;;;0.50;;
10295;SDS011;5193;51.032;6.356;2022-11-15T06:52:47;0.67;;;0.67;;
10295;SDS011;5193;51.032;6.356;2022-11-15T06:55:13;1.60;;;0.77;;
10295;SDS011;5193;51.032;6.356;2022-11-15T06:57:45;1.57;;;0.87;;
10295;SDS011;5193;51.032;6.356;2022-11-15T07:00:15;0.83;;;0.60;;
10295;SDS011;5193;51.032;6.356;2022-11-15T07:02:42;1.20;;;0.67;;
10295;SDS011;5193;51.032;6.356;2022-11-15T07:05:08;0.60;;;0.60;;
10295;SDS011;5193;51.032;6.356;2022-11-15T07:07:33;0.70;;;0.70;;
10295;SDS011;5193;51.032;6.356;2022-11-15T07:09:59;1.07;;;0.73;;
10295;SDS011;5193;51.032;6.356;2022-11-15T07:12:24;0.70;;;0.70;;
10295;SDS011;5193;51.032;6.356;2022-11-15T07:14:50;1.30;;;0.80;;
10295;SDS011;5193;51.032;6.356;2022-11-15T07:17:16;0.70;;;0.70;;
10295;SDS011;5193;51.032;6.356;2022-11-15T07:19:41;1.03;;;0.77;;
10295;SDS011;5193;51.032;6.356;2022-11-15T07:22:07;1.47;;;0.70;;
10295;SDS011;5193;51.032;6.356;2022-11-15T07:24:32;1.60;;;0.80;;
10295;SDS011;5193;51.032;6.356;2022-11-15T07:26:58;2.93;;;0.70;;
10295;SDS011;5193;51.032;6.356;2022-11-15T07:29:23;3.67;;;0.90;;
10295;SDS011;5193;51.032;6.356;2022-11-15T07:31:49;0.90;;;0.80;;
10295;SDS011;5193;51.032;6.356;2022-11-15T07:34:15;1.60;;;0.60;;
10295;SDS011;5193;51.032;6.356;2022-11-15T07:36:41;0.63;;;0.50;;
10295;SDS011;5193;51.032;6.356;2022-11-15T07:39:06;0.83;;;0.70;;
10295;SDS011;5193;51.032;6.356;2022-11-15T07:41:32;1.63;;;0.80;;
10295;SDS011;5193;51.032;6.356;2022-11-15T07:43:58;3.80;;;0.77;;
10295;SDS011;5193;51.032;6.356;2022-11-15T07:46:23;2.23;;;0.90;;
10295;SDS011;5193;51.032;6.356;2022-11-15T07:48:49;1.87;;;0.70;;
10295;SDS011;5193;51.032;6.356;2022-11-15T07:51:15;2.13;;;0.70;;
10295;SDS011;5193;51.032;6.356;2022-11-15T07:53:42;2.67;;;0.60;;
10295;SDS011;5193;51.032;6.356;2022-11-15T07:56:08;1.70;;;0.70;;
10295;SDS011;5193;51.032;6.356;2022-11-15T07:58:35;1.97;;;0.73;;
10295;SDS011;5193;51.032;6.356;2022-11-15T08:01:04;2.57;;;0.60;;
10295;SDS011;5193;51.032;6.356;2022-11-15T08:03:31;0.60;;;0.60;;
10295;SDS011;5193;51.032;6.356;2022-11-15T08:05:57;2.20;;;0.87;;
10295;SDS011;5193;51.032;6.356;2022-11-15T08:08:22;1.13;;;0.70;;
10295;SDS011;5193;51.032;6.356;2022-11-15T08:10:48;1.47;;;0.83;;
10295;SDS011;5193;51.032;6.356;2022-11-15T08:13:14;0.80;;;0.80;;
10295;SDS011;5193;51.032;6.356;2022-11-15T08:15:39;1.33;;;0.93;;
10295;SDS011;5193;51.032;6.356;2022-11-15T08:18:06;1.57;;;0.90;;
10295;SDS011;5193;51.032;6.356;2022-11-15T08:20:35;1.63;;;1.00;;
10295;SDS011;5193;51.032;6.356;2022-11-15T08:23:02;1.40;;;1.10;;
10295;SDS011;5193;51.032;6.356;2022-11-15T08:25:30;1.93;;;0.90;;
10295;SDS011;5193;51.032;6.356;2022-11-15T08:27:58;1.17;;;1.07;;
10295;SDS011;5193;51.032;6.356;2022-11-15T08:30:25;2.10;;;1.00;;
10295;SDS011;5193;51.032;6.356;2022-11-15T08:32:52;3.07;;;1.07;;
10295;SDS011;5193;51.032;6.356;2022-11-15T08:35:19;3.27;;;1.00;;
10295;SDS011;5193;51.032;6.356;2022-11-15T08:37:45;1.77;;;0.80;;
10295;SDS011;5193;51.032;6.356;2022-11-15T08:40:11;1.10;;;1.00;;
10295;SDS011;5193;51.032;6.356;2022-11-15T08:42:38;3.43;;;1.00;;
10295;SDS011;5193;51.032;6.356;2022-11-15T08:45:04;2.30;;;1.30;;
10295;SDS011;5193;51.032;6.356;2022-11-15T08:47:31;1.50;;;0.83;;
10295;SDS011;5193;51.032;6.356;2022-11-15T08:49:57;1.27;;;1.00;;
10295;SDS011;5193;51.032;6.356;2022-11-15T08:52:22;4.57;;;1.27;;
10295;SDS011;5193;51.032;6.356;2022-11-15T08:54:48;3.17;;;1.10;;
10295;SDS011;5193;51.032;6.356;2022-11-15T08:57:14;2.03;;;1.40;;
10295;SDS011;5193;51.032;6.356;2022-11-15T08:59:39;2.70;;;1.40;;
10295;SDS011;5193;51.032;6.356;2022-11-15T09:02:05;2.23;;;1.50;;
10295;SDS011;5193;51.032;6.356;2022-11-15T09:04:31;2.00;;;1.57;;
10295;SDS011;5193;51.032;6.356;2022-11-15T09:06:57;1.40;;;1.30;;
10295;SDS011;5193;51.032;6.356;2022-11-15T09:09:23;4.47;;;1.73;;
10295;SDS011;5193;51.032;6.356;2022-11-15T09:11:48;1.53;;;1.20;;
10295;SDS011;5193;51.032;6.356;2022-11-15T09:14:15;2.90;;;1.77;;
10295;SDS011;5193;51.032;6.356;2022-11-15T09:16:41;2.80;;;1.30;;
10295;SDS011;5193;51.032;6.356;2022-11-15T09:19:06;2.00;;;1.30;;
10295;SDS011;5193;51.032;6.356;2022-11-15T09:21:32;1.77;;;1.20;;
10295;SDS011;5193;51.032;6.356;2022-11-15T09:23:58;3.03;;;1.10;;
10295;SDS011;5193;51.032;6.356;2022-11-15T09:26:23;1.90;;;0.90;;
10295;SDS011;5193;51.032;6.356;2022-11-15T09:28:49;3.07;;;1.10;;
10295;SDS011;5193;51.032;6.356;2022-11-15T09:31:15;2.17;;;1.50;;
10295;SDS011;5193;51.032;6.356;2022-11-15T09:33:44;2.43;;;1.03;;
10295;SDS011;5193;51.032;6.356;2022-11-15T09:36:10;1.83;;;1.00;;
10295;SDS011;5193;51.032;6.356;2022-11-15T09:38:36;4.00;;;1.00;;
10295;SDS011;5193;51.032;6.356;2022-11-15T09:47:01;5.23;;;1.73;;
10295;SDS011;5193;51.032;6.356;2022-11-15T09:49:29;2.83;;;1.60;;
10295;SDS011;5193;51.032;6.356;2022-11-15T09:51:55;4.00;;;2.10;;
10295;SDS011;5193;51.032;6.356;2022-11-15T09:54:41;3.87;;;1.20;;
10295;SDS011;5193;51.032;6.356;2022-11-15T09:57:31;2.07;;;0.90;;
10295;SDS011;5193;51.032;6.356;2022-11-15T10:00:09;4.53;;;1.20;;
10295;SDS011;5193;51.032;6.356;2022-11-15T10:02:53;2.90;;;1.40;;
10295;SDS011;5193;51.032;6.356;2022-11-15T10:05:50;2.43;;;0.90;;
10295;SDS011;5193;51.032;6.356;2022-11-15T10:11:18;1.13;;;0.60;;
10295;SDS011;5193;51.032;6.356;2022-11-15T10:13:44;2.57;;;0.80;;
10295;SDS011;5193;51.032;6.356;2022-11-15T10:16:18;3.37;;;1.07;;
10295;SDS011;5193;51.032;6.356;2022-11-15T10:21:32;2.23;;;0.97;;
10295;SDS011;5193;51.032;6.356;2022-11-15T10:24:00;3.33;;;0.80;;
10295;SDS011;5193;51.032;6.356;2022-11-15T10:26:26;1.10;;;0.70;;
10295;SDS011;5193;51.032;6.356;2022-11-15T10:28:53;1.57;;;0.80;;
10295;SDS011;5193;51.032;6.356;2022-11-15T10:31:23;1.17;;;0.67;;
10295;SDS011;5193;51.032;6.356;2022-11-15T10:34:10;2.37;;;1.20;;
10295;SDS011;5193;51.032;6.356;2022-11-15T10:36:39;2.40;;;1.40;;
10295;SDS011;5193;51.032;6.356;2022-11-15T10:39:11;2.10;;;0.90;;
10295;SDS011;5193;51.032;6.356;2022-11-15T10:41:39;2.77;;;1.20;;
10295;SDS011;5193;51.032;6.356;2022-11-15T10:46:32;2.60;;;1.10;;
10295;SDS011;5193;51.032;6.356;2022-11-15T10:49:12;3.37;;;1.37;;
10295;SDS011;5193;51.032;6.356;2022-11-15T10:51:52;4.57;;;1.27;;
10295;SDS011;5193;51.032;6.356;2022-11-15T10:54:25;2.33;;;1.13;;
10295;SDS011;5193;51.032;6.356;2022-11-15T10:56:53;1.70;;;0.80;;
10295;SDS011;5193;51.032;6.356;2022-11-15T10:59:26;1.70;;;0.70;;
10295;SDS011;5193;51.032;6.356;2022-11-15T11:01:55;2.73;;;0.90;;
10295;SDS011;5193;51.032;6.356;2022-11-15T11:04:21;4.77;;;0.80;;
10295;SDS011;5193;51.032;6.356;2022-11-15T11:11:49;2.97;;;0.50;;
10295;SDS011;5193;51.032;6.356;2022-11-15T11:14:20;1.13;;;0.50;;
10295;SDS011;5193;51.032;6.356;2022-11-15T11:16:58;1.70;;;0.40;;
10295;SDS011;5193;51.032;6.356;2022-11-15T11:19:46;3.00;;;0.50;;
10295;SDS011;5193;51.032;6.356;2022-11-15T11:22:32;1.23;;;0.60;;
10295;SDS011;5193;51.032;6.356;2022-11-15T11:31:25;1.67;;;0.40;;
10295;SDS011;5193;51.032;6.356;2022-11-15T11:34:29;1.33;;;0.40;;
10295;SDS011;5193;51.032;6.356;2022-11-15T11:37:02;1.23;;;0.50;;
10295;SDS011;5193;51.032;6.356;2022-11-15T11:39:59;1.63;;;0.63;;
10295;SDS011;5193;51.032;6.356;2022-11-15T11:50:51;1.40;;;0.40;;
10295;SDS011;5193;51.032;6.356;2022-11-15T11:53:25;1.63;;;0.70;;
10295;SDS011;5193;51.032;6.356;2022-11-15T11:55:57;2.03;;;0.70;;
10295;SDS011;5193;51.032;6.356;2022-11-15T11:58:33;1.60;;;0.70;;
10295;SDS011;5193;51.032;6.356;2022-11-15T12:03:52;3.03;;;1.13;;
10295;SDS011;5193;51.032;6.356;2022-11-15T12:14:56;3.23;;;1.10;;
10295;SDS011;5193;51.032;6.356;2022-11-15T12:17:28;3.73;;;1.10;;
10295;SDS011;5193;51.032;6.356;2022-11-15T12:19:59;3.90;;;1.27;;
10295;SDS011;5193;51.032;6.356;2022-11-15T12:22:33;1.33;;;0.83;;
10295;SDS011;5193;51.032;6.356;2022-11-15T12:25:23;4.10;;;0.97;;
10295;SDS011;5193;51.032;6.356;2022-11-15T12:27:51;3.50;;;0.80;;
10295;SDS011;5193;51.032;6.356;2022-11-15T12:30:43;2.83;;;0.70;;
10295;SDS011;5193;51.032;6.356;2022-11-15T12:36:10;3.80;;;1.07;;
10295;SDS011;5193;51.032;6.356;2022-11-15T12:38:58;2.30;;;1.17;;
10295;SDS011;5193;51.032;6.356;2022-11-15T12:41:32;1.80;;;0.70;;
10295;SDS011;5193;51.032;6.356;2022-11-15T12:43:59;3.73;;;1.57;;
10295;SDS011;5193;51.032;6.356;2022-11-15T12:48:58;3.27;;;1.00;;
10295;SDS011;5193;51.032;6.356;2022-11-15T13:02:32;1.83;;;0.77;;
10295;SDS011;5193;51.032;6.356;2022-11-15T13:07:56;6.90;;;1.00;;
10295;SDS011;5193;51.032;6.356;2022-11-15T13:12:53;2.17;;;0.80;;
10295;SDS011;5193;51.032;6.356;2022-11-15T13:17:55;8.63;;;1.60;;
10295;SDS011;5193;51.032;6.356;2022-11-15T13:22:51;7.50;;;2.40;;
10295;SDS011;5193;51.032;6.356;2022-11-15T13:30:49;4.73;;;2.23;;
10295;SDS011;5193;51.032;6.356;2022-11-15T13:33:18;6.33;;;1.93;;
10295;SDS011;5193;51.032;6.356;2022-11-15T13:38:42;4.53;;;1.40;;
10295;SDS011;5193;51.032;6.356;2022-11-15T13:43:45;4.10;;;1.53;;
10295;SDS011;5193;51.032;6.356;2022-11-15T13:48:37;3.27;;;1.30;;
10295;SDS011;5193;51.032;6.356;2022-11-15T13:51:03;2.13;;;0.90;;
10295;SDS011;5193;51.032;6.356;2022-11-15T13:53:32;5.17;;;1.00;;
10295;SDS011;5193;51.032;6.356;2022-11-15T13:55:59;4.83;;;1.80;;
10295;SDS011;5193;51.032;6.356;2022-11-15T13:58:26;7.00;;;1.50;;
10295;SDS011;5193;51.032;6.356;2022-11-15T14:01:02;5.27;;;1.33;;
10295;SDS011;5193;51.032;6.356;2022-11-15T14:03:31;4.73;;;1.47;;
10295;SDS011;5193;51.032;6.356;2022-11-15T14:08:42;5.57;;;1.20;;
10295;SDS011;5193;51.032;6.356;2022-11-15T14:11:22;3.73;;;1.27;;
10295;SDS011;5193;51.032;6.356;2022-11-15T14:16:39;3.03;;;1.30;;
10295;SDS011;5193;51.032;6.356;2022-11-15T14:19:32;2.80;;;1.30;;
10295;SDS011;5193;51.032;6.356;2022-11-15T14:22:09;5.00;;;1.53;;
10295;SDS011;5193;51.032;6.356;2022-11-15T14:24:40;3.00;;;1.40;;
10295;SDS011;5193;51.032;6.356;2022-11-15T14:27:16;5.23;;;1.60;;
10295;SDS011;5193;51.032;6.356;2022-11-15T14:29:43;3.23;;;1.20;;
10295;SDS011;5193;51.032;6.356;2022-11-15T14:32:13;2.93;;;1.70;;
10295;SDS011;5193;51.032;6.356;2022-11-15T14:34:44;4.87;;;1.50;;
10295;SDS011;5193;51.032;6.356;2022-11-15T14:37:26;3.03;;;1.50;;
10295;SDS011;5193;51.032;6.356;2022-11-15T14:40:00;3.50;;;1.20;;
10295;SDS011;5193;51.032;6.356;2022-11-15T14:42:27;2.67;;;1.40;;
10295;SDS011;5193;51.032;6.356;2022-11-15T14:44:52;2.30;;;1.37;;
10295;SDS011;5193;51.032;6.356;2022-11-15T14:47:18;3.90;;;1.30;;
10295;SDS011;5193;51.032;6.356;2022-11-15T14:49:44;4.27;;;1.13;;
10295;SDS011;5193;51.032;6.356;2022-11-15T14:52:21;2.37;;;1.10;;
10295;SDS011;5193;51.032;6.356;2022-11-15T14:54:48;1.00;;;0.90;;
10295;SDS011;5193;51.032;6.356;2022-11-15T14:57:13;2.10;;;1.17;;
10295;SDS011;5193;51.032;6.356;2022-11-15T14:59:39;1.50;;;1.30;;
10295;SDS011;5193;51.032;6.356;2022-11-15T15:02:09;4.17;;;1.70;;
10295;SDS011;5193;51.032;6.356;2022-11-15T15:04:44;3.83;;;1.20;;
10295;SDS011;5193;51.032;6.356;2022-11-15T15:07:09;1.70;;;1.20;;
10295;SDS011;5193;51.032;6.356;2022-11-15T15:09:35;4.50;;;1.37;;
10295;SDS011;5193;51.032;6.356;2022-11-15T15:12:00;3.27;;;1.30;;
10295;SDS011;5193;51.032;6.356;2022-11-15T15:14:26;4.50;;;1.50;;
10295;SDS011;5193;51.032;6.356;2022-11-15T15:16:52;2.27;;;1.50;;
10295;SDS011;5193;51.032;6.356;2022-11-15T15:19:17;3.60;;;1.47;;
10295;SDS011;5193;51.032;6.356;2022-11-15T15:21:43;5.13;;;1.30;;
10295;SDS011;5193;51.032;6.356;2022-11-15T15:24:13;5.17;;;1.50;;
10295;SDS011;5193;51.032;6.356;2022-11-15T15:26:39;2.10;;;1.27;;
10295;SDS011;5193;51.032;6.356;2022-11-15T15:29:05;4.07;;;1.37;;
10295;SDS011;5193;51.032;6.356;2022-11-15T15:31:33;2.23;;;1.50;;
10295;SDS011;5193;51.032;6.356;2022-11-15T15:33:59;4.30;;;1.27;;
10295;SDS011;5193;51.032;6.356;2022-11-15T15:36:25;8.10;;;1.20;;
10295;SDS011;5193;51.032;6.356;2022-11-15T15:38:50;3.83;;;1.77;;
10295;SDS011;5193;51.032;6.356;2022-11-15T15:41:16;2.20;;;1.63;;
10295;SDS011;5193;51.032;6.356;2022-11-15T15:43:42;2.13;;;1.10;;
10295;SDS011;5193;51.032;6.356;2022-11-15T15:46:17;1.80;;;1.13;;
10295;SDS011;5193;51.032;6.356;2022-11-15T15:48:44;2.93;;;1.43;;
10295;SDS011;5193;51.032;6.356;2022-11-15T15:51:10;3.23;;;1.47;;
10295;SDS011;5193;51.032;6.356;2022-11-15T15:53:37;1.50;;;1.00;;
10295;SDS011;5193;51.032;6.356;2022-11-15T15:56:03;3.10;;;1.53;;
10295;SDS011;5193;51.032;6.356;2022-11-15T15:58:29;1.50;;;1.20;;
10295;SDS011;5193;51.032;6.356;2022-11-15T16:00:56;3.27;;;1.37;;
10295;SDS011;5193;51.032;6.356;2022-11-15T16:03:22;5.00;;;1.60;;
10295;SDS011;5193;51.032;6.356;2022-11-15T16:05:49;3.07;;;1.30;;
10295;SDS011;5193;51.032;6.356;2022-11-15T16:08:18;3.10;;;1.60;;
10295;SDS011;5193;51.032;6.356;2022-11-15T16:10:47;2.13;;;1.40;;
10295;SDS011;5193;51.032;6.356;2022-11-15T16:13:13;2.47;;;1.43;;
10295;SDS011;5193;51.032;6.356;2022-11-15T16:15:39;2.40;;;1.67;;
10295;SDS011;5193;51.032;6.356;2022-11-15T16:18:05;3.80;;;2.10;;
10295;SDS011;5193;51.032;6.356;2022-11-15T16:23:02;3.60;;;2.00;;
10295;SDS011;5193;51.032;6.356;2022-11-15T16:25:30;3.40;;;2.00;;
10295;SDS011;5193;51.032;6.356;2022-11-15T16:27:59;4.33;;;2.20;;
10295;SDS011;5193;51.032;6.356;2022-11-15T16:30:25;3.30;;;1.90;;
10295;SDS011;5193;51.032;6.356;2022-11-15T16:32:50;5.37;;;3.57;;
10295;SDS011;5193;51.032;6.356;2022-11-15T16:35:16;3.77;;;2.50;;
10295;SDS011;5193;51.032;6.356;2022-11-15T16:37:43;3.23;;;2.47;;
10295;SDS011;5193;51.032;6.356;2022-11-15T16:42:42;7.13;;;2.70;;
10295;SDS011;5193;51.032;6.356;2022-11-15T16:45:10;5.83;;;2.60;;
10295;SDS011;5193;51.032;6.356;2022-11-15T16:47:36;3.20;;;2.33;;
10295;SDS011;5193;51.032;6.356;2022-11-15T16:50:02;3.50;;;2.33;;
10295;SDS011;5193;51.032;6.356;2022-11-15T16:52:28;3.47;;;2.40;;
10295;SDS011;5193;51.032;6.356;2022-11-15T16:54:53;7.00;;;3.47;;
10295;SDS011;5193;51.032;6.356;2022-11-15T16:57:19;7.00;;;2.93;;
10295;SDS011;5193;51.032;6.356;2022-11-15T16:59:44;8.00;;;2.73;;
10295;SDS011;5193;51.032;6.356;2022-11-15T17:02:10;5.87;;;2.30;;
10295;SDS011;5193;51.032;6.356;2022-11-15T17:04:37;3.87;;;2.33;;
10295;SDS011;5193;51.032;6.356;2022-11-15T17:07:02;5.93;;;2.90;;
10295;SDS011;5193;51.032;6.356;2022-11-15T17:09:28;3.87;;;2.40;;
10295;SDS011;5193;51.032;6.356;2022-11-15T17:11:54;4.10;;;2.23;;
10295;SDS011;5193;51.032;6.356;2022-11-15T17:14:19;6.13;;;2.60;;